createdAt,value
2017-12-09T00:00:13.912Z,4.80
2017-12-09T00:01:21.146Z,5.00
2017-12-09T00:02:28.283Z,4.70
2017-12-09T00:03:34.944Z,4.70
2017-12-09T00:04:41.992Z,4.40
2017-12-09T00:05:48.956Z,4.80
2017-12-09T00:06:55.924Z,4.90
2017-12-09T00:08:02.954Z,5.00
2017-12-09T00:09:09.977Z,4.60
2017-12-09T00:10:16.979Z,5.30
2017-12-09T00:11:24.050Z,4.40
2017-12-09T00:12:31.012Z,4.40
2017-12-09T00:13:37.899Z,4.80
2017-12-09T00:14:44.933Z,4.80
2017-12-09T00:15:51.599Z,4.50
2017-12-09T00:16:58.821Z,4.10
2017-12-09T00:18:05.684Z,4.40
2017-12-09T00:19:12.812Z,4.40
2017-12-09T00:20:19.956Z,5.00
2017-12-09T00:21:26.893Z,4.70
2017-12-09T00:22:33.832Z,4.50
2017-12-09T00:23:40.868Z,4.80
2017-12-09T00:24:47.916Z,4.80
2017-12-09T00:25:54.986Z,4.00
2017-12-09T00:27:01.876Z,4.30
2017-12-09T00:28:09.060Z,4.40
2017-12-09T00:29:16.132Z,4.90
2017-12-09T00:30:23.180Z,4.60
2017-12-09T00:31:30.178Z,4.10
2017-12-09T00:32:37.416Z,4.50
2017-12-09T00:33:44.444Z,4.70
2017-12-09T00:34:51.459Z,4.60
2017-12-09T00:35:58.356Z,4.50
2017-12-09T00:37:05.372Z,4.70
2017-12-09T00:38:12.456Z,4.30
2017-12-09T00:39:19.425Z,5.00
2017-12-09T00:40:26.560Z,4.40
2017-12-09T00:41:33.492Z,4.50
2017-12-09T00:42:40.454Z,4.30
2017-12-09T00:43:47.594Z,4.50
2017-12-09T00:44:54.568Z,4.40
2017-12-09T00:46:01.616Z,4.20
2017-12-09T00:47:08.599Z,4.30
2017-12-09T00:48:15.404Z,4.20
2017-12-09T00:49:22.355Z,3.90
2017-12-09T00:50:29.456Z,3.80
2017-12-09T00:51:43.740Z,3.90
2017-12-09T00:52:43.229Z,4.80
2017-12-09T00:53:50.207Z,4.30
2017-12-09T00:54:57.223Z,4.30
2017-12-09T00:56:04.244Z,4.10
2017-12-09T00:57:11.255Z,4.10
2017-12-09T00:58:18.191Z,4.40
2017-12-09T00:59:25.068Z,4.40
2017-12-09T01:00:32.025Z,3.90
2017-12-09T01:01:39.104Z,4.30
2017-12-09T01:02:46.116Z,3.70
2017-12-09T01:03:53.170Z,4.00
2017-12-09T01:05:00.140Z,4.40
2017-12-09T01:06:07.220Z,4.40
2017-12-09T01:07:14.137Z,4.10
2017-12-09T01:08:21.119Z,4.20
2017-12-09T01:09:28.323Z,4.00
2017-12-09T01:10:35.307Z,4.00
2017-12-09T01:11:42.283Z,3.90
2017-12-09T01:12:49.240Z,3.90
2017-12-09T01:13:56.276Z,3.80
2017-12-09T01:15:03.130Z,4.50
2017-12-09T01:16:10.171Z,4.00
2017-12-09T01:17:17.745Z,4.40
2017-12-09T01:18:28.415Z,4.60
2017-12-09T01:19:35.453Z,4.10
2017-12-09T01:20:42.388Z,3.80
2017-12-09T01:21:49.596Z,4.50
2017-12-09T01:22:56.662Z,3.70
2017-12-09T01:24:03.604Z,3.80
2017-12-09T01:25:10.671Z,4.10
2017-12-09T01:26:17.684Z,4.20
2017-12-09T01:27:24.744Z,4.20
2017-12-09T01:28:31.415Z,4.30
2017-12-09T01:29:38.462Z,4.20
2017-12-09T01:30:45.435Z,4.90
2017-12-09T01:31:52.356Z,4.20
2017-12-09T01:32:59.279Z,4.00
2017-12-09T01:34:06.293Z,4.50
2017-12-09T01:35:13.333Z,4.00
2017-12-09T01:36:20.343Z,4.20
2017-12-09T01:37:27.303Z,3.90
2017-12-09T01:38:34.330Z,4.60
2017-12-09T01:39:41.317Z,4.90
2017-12-09T01:40:48.276Z,4.40
2017-12-09T01:41:55.245Z,4.30
2017-12-09T01:43:02.379Z,4.20
2017-12-09T01:44:09.489Z,4.10
2017-12-09T01:45:16.089Z,4.90
2017-12-09T01:46:23.151Z,4.20
2017-12-09T01:47:30.265Z,4.50
2017-12-09T01:48:36.877Z,5.10
2017-12-09T01:49:43.865Z,4.30
2017-12-09T01:50:51.120Z,4.20
2017-12-09T01:51:58.211Z,3.70
2017-12-09T01:53:05.189Z,4.40
2017-12-09T01:54:12.083Z,4.30
2017-12-09T01:55:19.203Z,3.90
2017-12-09T01:56:26.248Z,4.30
2017-12-09T01:57:33.281Z,4.50
2017-12-09T01:58:40.303Z,4.00
2017-12-09T01:59:47.281Z,4.40
2017-12-09T02:00:54.248Z,4.40
2017-12-09T02:02:01.326Z,4.60
2017-12-09T02:03:08.256Z,4.40
2017-12-09T02:04:15.251Z,4.50
2017-12-09T02:05:22.249Z,4.10
2017-12-09T02:06:29.265Z,4.80
2017-12-09T02:07:36.319Z,4.10
2017-12-09T02:08:43.350Z,4.10
2017-12-09T02:09:50.315Z,4.90
2017-12-09T02:10:57.329Z,4.20
2017-12-09T02:12:04.476Z,5.40
2017-12-09T02:13:11.630Z,4.00
2017-12-09T02:14:18.198Z,4.30
2017-12-09T02:15:25.176Z,4.70
2017-12-09T02:16:32.419Z,4.70
2017-12-09T02:17:39.006Z,4.50
2017-12-09T02:18:45.736Z,3.90
2017-12-09T02:19:52.925Z,4.20
2017-12-09T02:20:59.519Z,4.20
2017-12-09T02:22:06.560Z,4.10
2017-12-09T02:23:13.681Z,4.40
2017-12-09T02:24:20.896Z,4.40
2017-12-09T02:25:27.901Z,4.20
2017-12-09T02:26:34.996Z,4.50
2017-12-09T02:27:41.957Z,4.50
2017-12-09T02:28:48.939Z,4.10
2017-12-09T02:29:56.243Z,4.00
2017-12-09T02:31:03.155Z,4.50
2017-12-09T02:32:10.426Z,4.80
2017-12-09T02:33:18.468Z,4.30
2017-12-09T02:34:24.668Z,4.10
2017-12-09T02:35:31.761Z,4.60
2017-12-09T02:36:38.728Z,4.30
2017-12-09T02:37:45.836Z,4.10
2017-12-09T02:38:53.062Z,4.20
2017-12-09T02:39:59.487Z,4.20
2017-12-09T02:41:06.492Z,4.00
2017-12-09T02:42:13.608Z,3.90
2017-12-09T02:43:20.303Z,3.60
2017-12-09T02:44:27.176Z,4.10
2017-12-09T02:45:34.303Z,4.40
2017-12-09T02:46:41.346Z,4.80
2017-12-09T02:47:48.319Z,4.40
2017-12-09T02:48:55.600Z,4.40
2017-12-09T02:50:02.615Z,4.50
2017-12-09T02:51:09.789Z,4.00
2017-12-09T02:52:16.489Z,4.30
2017-12-09T02:53:23.248Z,4.70
2017-12-09T02:54:30.180Z,4.80
2017-12-09T02:55:37.500Z,5.00
2017-12-09T02:56:44.503Z,4.50
2017-12-09T02:57:51.921Z,4.30
2017-12-09T02:58:58.387Z,4.50
2017-12-09T03:00:05.506Z,4.40
2017-12-09T03:01:12.617Z,4.60
2017-12-09T03:02:19.571Z,4.30
2017-12-09T03:03:26.509Z,4.90
2017-12-09T03:04:33.712Z,4.50
2017-12-09T03:05:40.767Z,4.10
2017-12-09T03:06:47.864Z,4.50
2017-12-09T03:07:54.971Z,4.50
2017-12-09T03:09:01.800Z,4.30
2017-12-09T03:10:08.734Z,4.40
2017-12-09T03:11:15.376Z,4.70
2017-12-09T03:12:22.484Z,4.10
2017-12-09T03:13:29.520Z,5.50
2017-12-09T03:14:36.448Z,4.50
2017-12-09T03:15:43.564Z,4.90
2017-12-09T03:16:50.599Z,4.50
2017-12-09T03:17:57.363Z,5.10
2017-12-09T03:19:04.340Z,4.30
2017-12-09T03:20:11.397Z,4.60
2017-12-09T03:21:17.959Z,4.80
2017-12-09T03:22:24.950Z,3.80
2017-12-09T03:23:32.003Z,4.60
2017-12-09T03:24:38.763Z,4.70
2017-12-09T03:25:45.604Z,5.00
2017-12-09T03:26:52.496Z,4.50
2017-12-09T03:27:59.491Z,5.00
2017-12-09T03:29:06.429Z,5.10
2017-12-09T03:30:13.522Z,5.10
2017-12-09T03:31:20.546Z,4.70
2017-12-09T03:32:27.626Z,5.40
2017-12-09T03:33:34.571Z,5.20
2017-12-09T03:34:41.671Z,6.30
2017-12-09T03:35:48.652Z,6.20
2017-12-09T03:36:55.648Z,5.80
2017-12-09T03:38:02.793Z,5.40
2017-12-09T03:39:09.380Z,5.40
2017-12-09T03:40:16.420Z,5.40
2017-12-09T03:41:23.373Z,5.40
2017-12-09T03:42:30.271Z,5.20
2017-12-09T03:43:37.187Z,5.20
2017-12-09T03:44:44.035Z,5.20
2017-12-09T03:45:51.033Z,5.60
2017-12-09T03:46:58.121Z,5.70
2017-12-09T03:48:05.024Z,5.50
2017-12-09T03:49:11.985Z,5.70
2017-12-09T03:50:19.052Z,5.30
2017-12-09T03:51:26.140Z,5.50
2017-12-09T03:52:33.147Z,5.20
2017-12-09T03:53:40.256Z,5.50
2017-12-09T03:54:47.339Z,5.20
2017-12-09T03:55:54.176Z,5.50
2017-12-09T03:57:00.845Z,5.20
2017-12-09T03:58:07.758Z,5.20
2017-12-09T03:59:15.071Z,5.30
2017-12-09T04:00:22.071Z,5.10
2017-12-09T04:01:29.135Z,4.50
2017-12-09T04:02:36.132Z,5.20
2017-12-09T04:03:43.078Z,5.20
2017-12-09T04:04:50.293Z,5.00
2017-12-09T04:05:57.260Z,5.50
2017-12-09T04:07:04.349Z,5.30
2017-12-09T04:08:11.291Z,5.30
2017-12-09T04:09:18.229Z,5.40
2017-12-09T04:10:25.340Z,5.00
2017-12-09T04:11:32.200Z,4.80
2017-12-09T04:12:39.247Z,4.90
2017-12-09T04:13:46.321Z,4.80
2017-12-09T04:14:53.296Z,4.30
2017-12-09T04:16:00.212Z,4.70
2017-12-09T04:17:07.229Z,5.00
2017-12-09T04:18:14.257Z,5.50
2017-12-09T04:19:21.359Z,5.10
2017-12-09T04:20:28.524Z,4.70
2017-12-09T04:21:34.931Z,5.30
2017-12-09T04:22:41.864Z,4.60
2017-12-09T04:23:49.049Z,5.40
2017-12-09T04:24:56.027Z,4.70
2017-12-09T04:26:03.032Z,5.20
2017-12-09T04:27:10.302Z,4.70
2017-12-09T04:28:16.880Z,4.70
2017-12-09T04:29:23.716Z,4.70
2017-12-09T04:30:30.780Z,5.10
2017-12-09T04:31:37.796Z,4.60
2017-12-09T04:32:44.782Z,5.20
2017-12-09T04:33:51.871Z,4.80
2017-12-09T04:34:58.763Z,5.90
2017-12-09T04:36:05.660Z,5.20
2017-12-09T04:37:12.561Z,4.60
2017-12-09T04:38:19.756Z,4.60
2017-12-09T04:39:26.893Z,4.80
2017-12-09T04:40:33.912Z,5.30
2017-12-09T04:41:40.903Z,5.00
2017-12-09T04:42:47.864Z,5.20
2017-12-09T04:43:54.951Z,4.30
2017-12-09T04:45:02.011Z,4.40
2017-12-09T04:46:08.934Z,4.90
2017-12-09T04:47:16.112Z,4.40
2017-12-09T04:48:22.645Z,5.00
2017-12-09T04:49:29.549Z,5.40
2017-12-09T04:50:36.754Z,4.90
2017-12-09T04:51:43.742Z,4.70
2017-12-09T04:52:50.872Z,4.50
2017-12-09T04:53:57.427Z,4.70
2017-12-09T04:55:04.432Z,5.20
2017-12-09T04:56:11.431Z,5.10
2017-12-09T04:57:18.755Z,4.90
2017-12-09T04:58:25.235Z,5.10
2017-12-09T04:59:32.200Z,5.20
2017-12-09T05:00:39.108Z,4.60
2017-12-09T05:01:46.205Z,5.00
2017-12-09T05:02:53.427Z,5.20
2017-12-09T05:04:00.524Z,5.00
2017-12-09T05:05:07.571Z,5.00
2017-12-09T05:06:14.589Z,5.00
2017-12-09T05:07:21.335Z,5.10
2017-12-09T05:08:28.461Z,5.20
2017-12-09T05:09:35.372Z,4.60
2017-12-09T05:10:42.501Z,5.30
2017-12-09T05:11:49.544Z,5.30
2017-12-09T05:12:56.547Z,5.10
2017-12-09T05:14:03.477Z,5.30
2017-12-09T05:15:10.665Z,4.80
2017-12-09T05:16:17.635Z,5.20
2017-12-09T05:17:24.748Z,4.90
2017-12-09T05:18:31.825Z,4.80
2017-12-09T05:19:38.600Z,5.80
2017-12-09T05:20:45.744Z,4.70
2017-12-09T05:21:52.962Z,4.70
2017-12-09T05:23:00.016Z,4.80
2017-12-09T05:24:06.703Z,4.60
2017-12-09T05:25:13.753Z,5.40
2017-12-09T05:26:20.915Z,5.10
2017-12-09T05:27:28.156Z,4.50
2017-12-09T05:28:34.727Z,4.80
2017-12-09T05:29:41.781Z,4.40
2017-12-09T05:30:48.943Z,4.90
2017-12-09T05:31:55.903Z,4.70
2017-12-09T05:33:02.821Z,4.70
2017-12-09T05:34:09.804Z,4.60
2017-12-09T05:35:16.993Z,5.00
2017-12-09T05:36:24.117Z,5.00
2017-12-09T05:37:31.237Z,4.80
2017-12-09T05:38:38.306Z,5.20
2017-12-09T05:39:45.000Z,5.10
2017-12-09T05:40:52.167Z,4.70
2017-12-09T05:41:59.030Z,4.90
2017-12-09T05:43:06.050Z,4.90
2017-12-09T05:44:13.096Z,5.20
2017-12-09T05:45:20.051Z,5.00
2017-12-09T05:46:27.076Z,4.70
2017-12-09T05:47:34.030Z,5.00
2017-12-09T05:48:41.135Z,5.30
2017-12-09T05:49:48.107Z,4.50
2017-12-09T05:50:55.268Z,4.90
2017-12-09T05:52:02.271Z,4.80
2017-12-09T05:53:09.232Z,5.10
2017-12-09T05:54:15.984Z,5.00
2017-12-09T05:55:23.139Z,5.20
2017-12-09T05:56:30.216Z,4.50
2017-12-09T05:57:37.302Z,5.00
2017-12-09T05:58:44.221Z,4.50
2017-12-09T05:59:51.423Z,4.60
2017-12-09T06:00:58.583Z,4.50
2017-12-09T06:02:05.674Z,4.70
2017-12-09T06:03:12.900Z,5.00
2017-12-09T06:04:19.976Z,4.80
2017-12-09T06:05:26.708Z,5.20
2017-12-09T06:06:33.620Z,5.00
2017-12-09T06:07:40.660Z,5.00
2017-12-09T06:08:47.726Z,4.80
2017-12-09T06:09:54.712Z,5.10
2017-12-09T06:11:01.835Z,4.80
2017-12-09T06:12:08.548Z,5.00
2017-12-09T06:13:15.360Z,5.10
2017-12-09T06:14:22.288Z,4.60
2017-12-09T06:15:29.159Z,4.10
2017-12-09T06:16:36.199Z,4.60
2017-12-09T06:17:42.844Z,5.20
2017-12-09T06:18:49.568Z,5.10
2017-12-09T06:19:56.331Z,5.30
2017-12-09T06:21:03.598Z,5.00
2017-12-09T06:22:10.457Z,4.80
2017-12-09T06:23:17.056Z,5.40
2017-12-09T06:24:24.274Z,5.40
2017-12-09T06:25:31.267Z,5.00
2017-12-09T06:26:38.289Z,4.80
2017-12-09T06:27:45.146Z,4.80
2017-12-09T06:28:51.626Z,5.00
2017-12-09T06:29:58.868Z,4.80
2017-12-09T06:31:05.977Z,4.70
2017-12-09T06:32:12.941Z,4.90
2017-12-09T06:33:20.005Z,5.00
2017-12-09T06:34:27.208Z,4.80
2017-12-09T06:35:33.899Z,4.70
2017-12-09T06:36:41.041Z,5.00
2017-12-09T06:37:47.980Z,4.80
2017-12-09T06:38:55.078Z,5.10
2017-12-09T06:40:01.887Z,4.60
2017-12-09T06:41:09.197Z,5.30
2017-12-09T06:42:16.119Z,4.40
2017-12-09T06:43:23.136Z,5.00
2017-12-09T06:44:30.080Z,4.80
2017-12-09T06:45:37.116Z,4.90
2017-12-09T06:46:44.180Z,5.10
2017-12-09T06:47:50.884Z,5.10
2017-12-09T06:48:57.955Z,4.70
2017-12-09T06:50:04.932Z,4.70
2017-12-09T06:51:12.157Z,4.60
2017-12-09T06:52:19.012Z,4.70
2017-12-09T06:53:25.813Z,5.00
2017-12-09T06:54:32.778Z,4.60
2017-12-09T06:55:39.799Z,5.00
2017-12-09T06:56:46.760Z,4.60
2017-12-09T06:57:53.902Z,4.50
2017-12-09T06:59:00.932Z,4.50
2017-12-09T07:00:08.112Z,4.70
2017-12-09T07:01:15.231Z,4.20
2017-12-09T07:02:22.368Z,4.90
2017-12-09T07:03:29.360Z,4.60
2017-12-09T07:04:36.379Z,4.50
2017-12-09T07:05:43.297Z,4.80
2017-12-09T07:06:50.451Z,4.60
2017-12-09T07:07:57.716Z,4.40
2017-12-09T07:09:04.794Z,4.30
2017-12-09T07:10:11.763Z,4.50
2017-12-09T07:11:18.804Z,4.60
2017-12-09T07:12:25.928Z,4.50
2017-12-09T07:13:32.965Z,4.80
2017-12-09T07:14:39.880Z,4.20
2017-12-09T07:15:46.917Z,4.80
2017-12-09T07:16:53.823Z,7.60
2017-12-09T07:18:01.101Z,6.90
2017-12-09T07:19:08.213Z,9.50
2017-12-09T07:20:15.308Z,8.30
2017-12-09T07:21:22.469Z,7.40
2017-12-09T07:22:29.464Z,8.00
2017-12-09T07:23:36.532Z,12.10
2017-12-09T07:24:43.371Z,9.10
2017-12-09T07:25:50.596Z,8.90
2017-12-09T07:26:57.795Z,9.40
2017-12-09T07:28:04.481Z,9.30
2017-12-09T07:29:11.260Z,8.70
2017-12-09T07:30:20.488Z,9.80
2017-12-09T07:31:25.360Z,9.30
2017-12-09T07:32:32.318Z,8.70
2017-12-09T07:33:39.696Z,4.40
2017-12-09T07:34:46.311Z,4.80
2017-12-09T07:35:53.196Z,4.50
2017-12-09T07:36:59.914Z,5.10
2017-12-09T07:38:06.808Z,4.60
2017-12-09T07:39:14.368Z,4.70
2017-12-09T07:40:20.704Z,4.70
2017-12-09T07:41:27.986Z,4.50
2017-12-09T07:42:35.048Z,5.10
2017-12-09T07:43:41.677Z,5.20
2017-12-09T07:44:48.535Z,5.10
2017-12-09T07:45:55.495Z,4.70
2017-12-09T07:47:02.674Z,4.80
2017-12-09T07:48:09.711Z,5.50
2017-12-09T07:49:16.709Z,4.70
2017-12-09T07:50:23.701Z,4.70
2017-12-09T07:51:30.716Z,4.90
2017-12-09T07:52:37.655Z,5.20
2017-12-09T07:53:44.611Z,5.10
2017-12-09T07:54:51.684Z,4.70
2017-12-09T07:55:58.636Z,4.80
2017-12-09T07:57:05.433Z,5.10
2017-12-09T07:58:12.504Z,5.30
2017-12-09T07:59:19.157Z,5.70
2017-12-09T08:00:26.425Z,4.90
2017-12-09T08:01:33.048Z,4.90
2017-12-09T08:02:40.172Z,4.50
2017-12-09T08:03:46.926Z,5.30
2017-12-09T08:04:54.158Z,4.50
2017-12-09T08:06:01.008Z,4.70
2017-12-09T08:07:08.171Z,4.90
2017-12-09T08:08:15.188Z,5.20
2017-12-09T08:09:22.067Z,4.40
2017-12-09T08:10:29.271Z,5.40
2017-12-09T08:11:36.312Z,4.90
2017-12-09T08:12:43.103Z,5.10
2017-12-09T08:13:50.143Z,5.20
2017-12-09T08:14:57.128Z,5.10
2017-12-09T08:16:04.244Z,5.20
2017-12-09T08:17:11.299Z,5.00
2017-12-09T08:18:17.884Z,5.00
2017-12-09T08:19:24.840Z,4.60
2017-12-09T08:20:31.572Z,5.10
2017-12-09T08:21:38.641Z,5.00
2017-12-09T08:22:45.657Z,4.70
2017-12-09T08:23:52.415Z,5.60
2017-12-09T08:24:59.551Z,5.50
2017-12-09T08:26:06.216Z,4.80
2017-12-09T08:27:13.415Z,5.10
2017-12-09T08:28:20.244Z,5.50
2017-12-09T08:29:27.331Z,5.00
2017-12-09T08:30:34.131Z,5.10
2017-12-09T08:31:41.052Z,4.80
2017-12-09T08:32:47.527Z,5.50
2017-12-09T08:33:54.584Z,4.70
2017-12-09T08:35:01.848Z,5.00
2017-12-09T08:36:09.112Z,5.10
2017-12-09T08:37:15.639Z,5.10
2017-12-09T08:38:22.604Z,5.10
2017-12-09T08:39:29.888Z,5.50
2017-12-09T08:40:37.097Z,5.50
2017-12-09T08:41:43.945Z,5.70
2017-12-09T08:42:50.568Z,5.20
2017-12-09T08:43:57.557Z,5.50
2017-12-09T08:45:04.080Z,5.10
2017-12-09T08:46:10.827Z,5.10
2017-12-09T08:47:17.664Z,5.40
2017-12-09T08:48:24.197Z,5.10
2017-12-09T08:49:31.219Z,5.10
2017-12-09T08:50:38.380Z,5.60
2017-12-09T08:51:45.339Z,5.70
2017-12-09T08:52:52.351Z,5.20
2017-12-09T08:53:59.384Z,4.60
2017-12-09T08:55:06.808Z,5.30
2017-12-09T08:56:13.348Z,4.90
2017-12-09T08:57:20.076Z,5.10
2017-12-09T08:58:27.297Z,4.90
2017-12-09T08:59:34.201Z,4.70
2017-12-09T09:00:41.522Z,5.00
2017-12-09T09:01:48.298Z,5.80
2017-12-09T09:02:55.309Z,5.30
2017-12-09T09:04:02.570Z,5.20
2017-12-09T09:05:09.080Z,4.40
2017-12-09T09:06:16.144Z,5.30
2017-12-09T09:07:23.032Z,5.10
2017-12-09T09:08:30.148Z,4.90
2017-12-09T09:09:37.284Z,5.40
2017-12-09T09:10:44.011Z,5.30
2017-12-09T09:11:51.067Z,5.90
2017-12-09T09:12:58.031Z,5.20
2017-12-09T09:14:05.127Z,6.20
2017-12-09T09:15:12.200Z,5.30
2017-12-09T09:16:19.185Z,5.60
2017-12-09T09:17:25.636Z,5.60
2017-12-09T09:18:32.639Z,5.40
2017-12-09T09:19:39.683Z,5.20
2017-12-09T09:20:46.643Z,6.30
2017-12-09T09:21:54.508Z,5.20
2017-12-09T09:23:00.760Z,5.30
2017-12-09T09:24:07.876Z,5.60
2017-12-09T09:25:14.799Z,5.80
2017-12-09T09:26:21.718Z,4.90
2017-12-09T09:27:28.756Z,5.30
2017-12-09T09:28:35.643Z,6.20
2017-12-09T09:29:42.812Z,5.90
2017-12-09T09:30:49.952Z,5.60
2017-12-09T09:31:56.983Z,5.50
2017-12-09T09:33:03.972Z,5.50
2017-12-09T09:34:11.064Z,5.30
2017-12-09T09:35:18.247Z,5.90
2017-12-09T09:36:24.933Z,5.50
2017-12-09T09:37:32.077Z,5.70
2017-12-09T09:38:39.311Z,5.60
2017-12-09T09:39:46.107Z,5.60
2017-12-09T09:40:53.192Z,6.20
2017-12-09T09:41:59.781Z,5.50
2017-12-09T09:43:06.467Z,6.70
2017-12-09T09:44:13.622Z,5.50
2017-12-09T09:45:20.317Z,5.60
2017-12-09T09:46:27.279Z,5.40
2017-12-09T09:47:34.316Z,5.80
2017-12-09T09:48:41.759Z,5.80
2017-12-09T09:49:48.128Z,6.20
2017-12-09T09:50:55.295Z,5.70
2017-12-09T09:52:02.189Z,5.70
2017-12-09T09:53:09.296Z,6.10
2017-12-09T09:54:16.360Z,5.40
2017-12-09T09:55:23.344Z,5.70
2017-12-09T09:56:30.104Z,6.20
2017-12-09T09:57:37.089Z,5.60
2017-12-09T09:58:44.093Z,6.10
2017-12-09T09:59:51.039Z,5.70
2017-12-09T10:00:58.162Z,6.00
2017-12-09T10:02:05.295Z,6.20
2017-12-09T10:03:12.125Z,7.20
2017-12-09T10:04:19.331Z,5.90
2017-12-09T10:05:26.443Z,6.00
2017-12-09T10:06:33.442Z,5.80
2017-12-09T10:07:40.500Z,5.40
2017-12-09T10:08:47.657Z,5.70
2017-12-09T10:09:54.544Z,5.50
2017-12-09T10:11:01.655Z,5.40
2017-12-09T10:12:08.267Z,4.70
2017-12-09T10:13:15.209Z,5.30
2017-12-09T10:14:21.767Z,5.30
2017-12-09T10:15:28.977Z,4.90
2017-12-09T10:16:35.959Z,5.50
2017-12-09T10:17:42.885Z,5.10
2017-12-09T10:18:49.930Z,5.40
2017-12-09T10:19:57.052Z,5.40
2017-12-09T10:21:03.878Z,5.40
2017-12-09T10:22:10.737Z,5.50
2017-12-09T10:23:18.044Z,5.30
2017-12-09T10:24:25.220Z,5.50
2017-12-09T10:25:31.551Z,4.90
2017-12-09T10:26:38.589Z,5.60
2017-12-09T10:27:45.686Z,5.60
2017-12-09T10:28:52.616Z,4.90
2017-12-09T10:29:59.665Z,5.70
2017-12-09T10:31:06.643Z,5.20
2017-12-09T10:32:13.613Z,4.90
2017-12-09T10:33:20.739Z,5.00
2017-12-09T10:34:27.799Z,4.80
2017-12-09T10:35:34.140Z,5.30
2017-12-09T10:36:41.103Z,4.20
2017-12-09T10:37:47.956Z,4.10
2017-12-09T10:38:54.887Z,4.80
2017-12-09T10:40:01.793Z,4.90
2017-12-09T10:41:08.821Z,4.80
2017-12-09T10:42:15.743Z,4.80
2017-12-09T10:43:22.785Z,5.00
2017-12-09T10:44:29.813Z,5.10
2017-12-09T10:45:36.848Z,5.00
2017-12-09T10:46:43.735Z,4.60
2017-12-09T10:47:50.785Z,4.90
2017-12-09T10:48:57.426Z,4.80
2017-12-09T10:50:04.553Z,4.80
2017-12-09T10:51:16.475Z,4.60
2017-12-09T10:52:23.520Z,5.50
2017-12-09T10:53:30.248Z,5.50
2017-12-09T10:54:37.172Z,5.10
2017-12-09T10:55:44.180Z,4.80
2017-12-09T10:56:50.934Z,5.40
2017-12-09T10:57:57.807Z,6.00
2017-12-09T10:59:04.413Z,4.90
2017-12-09T11:00:11.417Z,5.60
2017-12-09T11:01:18.424Z,4.90
2017-12-09T11:02:25.391Z,4.90
2017-12-09T11:03:32.456Z,4.80
2017-12-09T11:04:39.700Z,4.80
2017-12-09T11:05:46.217Z,4.50
2017-12-09T11:06:53.344Z,4.60
2017-12-09T11:07:59.832Z,4.60
2017-12-09T11:09:07.238Z,5.20
2017-12-09T11:10:14.277Z,5.10
2017-12-09T11:11:20.943Z,4.50
2017-12-09T11:12:27.634Z,4.50
2017-12-09T11:13:34.423Z,5.00
2017-12-09T11:14:41.351Z,4.80
2017-12-09T11:15:48.534Z,4.30
2017-12-09T11:16:55.343Z,4.70
2017-12-09T11:18:02.412Z,4.50
2017-12-09T11:19:09.437Z,4.60
2017-12-09T11:20:16.483Z,4.70
2017-12-09T11:21:23.374Z,4.50
2017-12-09T11:22:29.924Z,4.70
2017-12-09T11:23:37.176Z,4.90
2017-12-09T11:24:43.851Z,4.10
2017-12-09T11:25:51.085Z,4.20
2017-12-09T11:26:57.572Z,4.20
2017-12-09T11:28:04.715Z,4.20
2017-12-09T11:29:11.769Z,4.60
2017-12-09T11:30:18.869Z,4.50
2017-12-09T11:31:25.489Z,4.80
2017-12-09T11:32:32.640Z,4.60
2017-12-09T11:33:39.496Z,4.70
2017-12-09T11:34:46.424Z,4.50
2017-12-09T11:35:52.806Z,4.10
2017-12-09T11:36:59.804Z,4.70
2017-12-09T11:38:06.563Z,4.90
2017-12-09T11:39:13.559Z,4.80
2017-12-09T11:40:20.288Z,4.50
2017-12-09T11:41:27.227Z,4.30
2017-12-09T11:42:33.956Z,4.30
2017-12-09T11:43:40.840Z,4.10
2017-12-09T11:44:42.757Z,4.50
2017-12-09T11:45:49.381Z,3.80
2017-12-09T11:46:56.524Z,4.00
2017-12-09T11:48:03.179Z,4.20
2017-12-09T11:49:09.801Z,4.80
2017-12-09T11:50:16.771Z,4.00
2017-12-09T11:51:23.800Z,4.00
2017-12-09T11:52:30.852Z,4.10
2017-12-09T11:53:37.976Z,4.40
2017-12-09T11:54:44.928Z,4.10
2017-12-09T11:55:52.008Z,4.20
2017-12-09T11:56:59.340Z,3.90
2017-12-09T11:58:05.791Z,4.50
2017-12-09T11:59:12.937Z,4.00
2017-12-09T12:00:19.931Z,4.20
2017-12-09T12:01:26.620Z,3.80
2017-12-09T12:02:33.555Z,4.10
2017-12-09T12:03:40.660Z,4.40
2017-12-09T12:04:47.814Z,4.40
2017-12-09T12:05:54.929Z,4.40
2017-12-09T12:07:01.900Z,4.00
2017-12-09T12:08:08.911Z,4.20
2017-12-09T12:09:15.956Z,4.40
2017-12-09T12:10:23.085Z,4.90
2017-12-09T12:11:30.169Z,3.90
2017-12-09T12:12:37.235Z,4.00
2017-12-09T12:13:44.116Z,4.00
2017-12-09T12:14:51.083Z,4.10
2017-12-09T12:15:58.228Z,4.20
2017-12-09T12:17:05.480Z,4.10
2017-12-09T12:18:12.483Z,4.50
2017-12-09T12:19:19.663Z,4.30
2017-12-09T12:20:26.744Z,4.40
2017-12-09T12:21:33.769Z,4.00
2017-12-09T12:22:40.695Z,4.00
2017-12-09T12:23:47.732Z,4.10
2017-12-09T12:24:54.404Z,3.70
2017-12-09T12:26:01.760Z,4.20
2017-12-09T12:27:08.417Z,3.90
2017-12-09T12:28:15.549Z,4.00
2017-12-09T12:29:22.521Z,3.70
2017-12-09T12:30:29.512Z,3.30
2017-12-09T12:31:36.437Z,3.70
2017-12-09T12:32:43.507Z,3.90
2017-12-09T12:33:50.615Z,3.60
2017-12-09T12:34:57.666Z,3.70
2017-12-09T12:36:04.650Z,3.90
2017-12-09T12:37:11.756Z,3.70
2017-12-09T12:38:18.667Z,3.60
2017-12-09T12:39:25.660Z,3.80
2017-12-09T12:40:32.712Z,4.40
2017-12-09T12:41:39.452Z,4.00
2017-12-09T12:42:46.328Z,3.70
2017-12-09T12:43:53.547Z,3.80
2017-12-09T12:45:00.616Z,3.80
2017-12-09T12:46:07.554Z,4.10
2017-12-09T12:47:14.580Z,3.60
2017-12-09T12:48:21.580Z,3.80
2017-12-09T12:49:28.399Z,3.50
2017-12-09T12:50:35.352Z,4.00
2017-12-09T12:51:42.300Z,4.50
2017-12-09T12:52:49.283Z,5.10
2017-12-09T12:53:56.249Z,5.30
2017-12-09T12:55:03.328Z,4.30
2017-12-09T12:56:10.335Z,3.90
2017-12-09T12:57:17.281Z,3.70
2017-12-09T12:58:24.229Z,3.90
2017-12-09T12:59:31.221Z,3.70
2017-12-09T13:00:38.585Z,4.30
2017-12-09T13:01:45.053Z,7.70
2017-12-09T13:02:52.168Z,5.60
2017-12-09T13:03:59.394Z,5.60
2017-12-09T13:05:06.283Z,4.60
2017-12-09T13:06:13.343Z,5.00
2017-12-09T13:07:20.330Z,5.20
2017-12-09T13:08:27.407Z,4.70
2017-12-09T13:09:34.245Z,3.30
2017-12-09T13:10:41.404Z,3.70
2017-12-09T13:11:47.853Z,3.30
2017-12-09T13:12:54.824Z,3.60
2017-12-09T13:14:01.813Z,3.30
2017-12-09T13:15:08.803Z,3.40
2017-12-09T13:16:16.179Z,3.60
2017-12-09T13:17:23.147Z,4.20
2017-12-09T13:18:30.137Z,4.00
2017-12-09T13:19:37.224Z,3.30
2017-12-09T13:20:44.115Z,3.30
2017-12-09T13:21:50.719Z,3.20
2017-12-09T13:22:57.672Z,2.70
2017-12-09T13:24:04.824Z,3.50
2017-12-09T13:25:11.832Z,3.50
2017-12-09T13:26:18.785Z,3.30
2017-12-09T13:27:25.766Z,3.50
2017-12-09T13:28:32.672Z,3.40
2017-12-09T13:29:39.612Z,3.40
2017-12-09T13:30:46.643Z,4.00
2017-12-09T13:31:53.748Z,3.50
2017-12-09T13:33:00.820Z,3.40
2017-12-09T13:34:07.792Z,2.90
2017-12-09T13:35:14.835Z,3.00
2017-12-09T13:36:21.825Z,3.20
2017-12-09T13:37:28.896Z,3.40
2017-12-09T13:38:36.057Z,3.30
2017-12-09T13:39:43.025Z,3.60
2017-12-09T13:40:50.123Z,3.40
2017-12-09T13:41:56.924Z,2.90
2017-12-09T13:43:04.093Z,3.30
2017-12-09T13:44:10.798Z,2.90
2017-12-09T13:45:17.388Z,3.20
2017-12-09T13:46:24.351Z,3.40
2017-12-09T13:47:31.555Z,3.40
2017-12-09T13:48:38.233Z,3.80
2017-12-09T13:49:45.442Z,3.10
2017-12-09T13:50:52.437Z,3.40
2017-12-09T13:51:59.441Z,3.70
2017-12-09T13:53:06.668Z,3.00
2017-12-09T13:54:13.747Z,3.10
2017-12-09T13:55:20.703Z,3.20
2017-12-09T13:56:27.782Z,2.90
2017-12-09T13:57:34.563Z,2.80
2017-12-09T13:58:41.564Z,3.30
2017-12-09T13:59:48.677Z,3.00
2017-12-09T14:00:55.757Z,3.30
2017-12-09T14:02:02.838Z,3.40
2017-12-09T14:03:09.888Z,3.20
2017-12-09T14:04:17.017Z,3.10
2017-12-09T14:05:24.151Z,3.50
2017-12-09T14:06:31.134Z,2.80
2017-12-09T14:07:38.205Z,2.80
2017-12-09T14:08:45.172Z,3.10
2017-12-09T14:09:52.264Z,3.00
2017-12-09T14:10:59.224Z,3.10
2017-12-09T14:12:06.176Z,6.00
2017-12-09T14:13:13.061Z,5.70
2017-12-09T14:14:19.935Z,6.00
2017-12-09T14:15:26.964Z,6.10
2017-12-09T14:16:33.983Z,4.70
2017-12-09T14:17:41.038Z,2.90
2017-12-09T14:18:47.961Z,2.90
2017-12-09T14:19:54.942Z,5.50
2017-12-09T14:21:02.042Z,5.30
2017-12-09T14:22:09.256Z,5.00
2017-12-09T14:23:16.216Z,5.60
2017-12-09T14:24:23.227Z,4.30
2017-12-09T14:25:01.188Z,3.20
2017-12-09T14:26:08.038Z,6.20
2017-12-09T14:27:15.079Z,6.50
2017-12-09T14:28:22.028Z,6.70
2017-12-09T14:29:29.025Z,6.10
2017-12-09T14:30:36.116Z,4.30
2017-12-09T14:31:43.163Z,3.50
2017-12-09T14:32:50.228Z,3.70
2017-12-09T14:33:57.172Z,5.60
2017-12-09T14:35:04.240Z,3.60
2017-12-09T14:36:11.123Z,3.10
2017-12-09T14:37:18.072Z,3.30
2017-12-09T14:38:25.017Z,3.80
2017-12-09T14:39:32.108Z,3.40
2017-12-09T14:40:39.064Z,4.20
2017-12-09T14:41:46.024Z,4.20
2017-12-09T14:42:53.060Z,3.60
2017-12-09T14:44:00.076Z,3.80
2017-12-09T14:45:07.115Z,2.90
2017-12-09T14:46:13.983Z,3.30
2017-12-09T14:47:21.273Z,3.60
2017-12-09T14:48:28.376Z,3.50
2017-12-09T14:49:35.508Z,3.20
2017-12-09T14:50:42.475Z,2.70